createdAt,value
2022-10-04T00:01:25.332Z,2.30
2022-10-04T00:04:39.415Z,2.55
2022-10-04T00:07:11.466Z,3.17
2022-10-04T00:09:54.748Z,2.67
2022-10-04T00:12:25.148Z,1.88
2022-10-04T00:14:53.661Z,2.47
2022-10-04T00:17:26.818Z,2.65
2022-10-04T00:19:54.828Z,2.50
2022-10-04T00:22:32.419Z,2.33
2022-10-04T00:25:08.334Z,2.47
2022-10-04T00:27:36.066Z,1.83
2022-10-04T00:30:02.444Z,2.05
2022-10-04T00:32:46.551Z,2.10
2022-10-04T00:35:25.092Z,2.03
2022-10-04T00:37:59.258Z,2.13
2022-10-04T00:40:34.373Z,3.10
2022-10-04T00:43:15.523Z,2.63
2022-10-04T00:45:46.283Z,2.17
2022-10-04T00:48:33.264Z,2.53
2022-10-04T00:51:12.364Z,2.47
2022-10-04T00:53:53.607Z,2.50
2022-10-04T00:56:28.374Z,2.53
2022-10-04T00:58:57.643Z,2.80
2022-10-04T01:01:26.566Z,2.70
2022-10-04T01:03:54.112Z,2.33
2022-10-04T01:06:21.497Z,2.28
2022-10-04T01:08:52.903Z,2.28
2022-10-04T01:11:35.935Z,2.90
2022-10-04T01:14:12.854Z,2.20
2022-10-04T01:16:39.520Z,2.65
2022-10-04T01:19:24.577Z,1.83
2022-10-04T01:22:11.944Z,1.55
2022-10-04T01:24:43.443Z,2.15
2022-10-04T01:27:41.943Z,1.88
2022-10-04T01:30:14.646Z,1.63
2022-10-04T01:32:41.108Z,1.67
2022-10-04T01:35:10.318Z,2.65
2022-10-04T01:37:37.265Z,2.85
2022-10-04T01:40:04.098Z,2.35
2022-10-04T01:42:39.443Z,2.10
2022-10-04T01:45:26.989Z,2.45
2022-10-04T01:47:55.625Z,3.17
2022-10-04T01:50:47.151Z,3.95
2022-10-04T01:53:19.377Z,3.08
2022-10-04T01:55:50.844Z,2.70
2022-10-04T01:58:23.977Z,3.03
2022-10-04T02:01:01.720Z,3.00
2022-10-04T02:03:36.991Z,3.47
2022-10-04T02:06:05.936Z,3.25
2022-10-04T02:08:33.869Z,3.72
2022-10-04T02:11:01.434Z,3.58
2022-10-04T02:13:32.613Z,2.50
2022-10-04T02:15:59.334Z,2.75
2022-10-04T02:18:28.303Z,2.67
2022-10-04T02:20:55.115Z,2.13
2022-10-04T02:23:22.844Z,2.83
2022-10-04T02:25:50.214Z,2.45
2022-10-04T02:28:18.702Z,2.45
2022-10-04T02:31:07.965Z,2.60
2022-10-04T02:33:39.416Z,2.22
2022-10-04T02:36:07.108Z,2.58
2022-10-04T02:38:35.646Z,2.60
2022-10-04T02:41:05.200Z,2.90
2022-10-04T02:43:49.470Z,3.38
2022-10-04T02:46:25.721Z,2.35
2022-10-04T02:48:56.803Z,2.88
2022-10-04T02:51:33.333Z,3.05
2022-10-04T02:54:28.520Z,2.67
2022-10-04T02:56:56.274Z,2.42
2022-10-04T02:59:22.734Z,3.25
2022-10-04T03:01:58.055Z,2.65
2022-10-04T03:04:37.885Z,2.65
2022-10-04T03:07:06.852Z,2.65
2022-10-04T03:09:35.268Z,2.88
2022-10-04T03:12:03.329Z,3.03
2022-10-04T03:14:30.642Z,2.67
2022-10-04T03:17:00.760Z,2.47
2022-10-04T03:19:29.638Z,2.47
2022-10-04T03:22:01.960Z,2.92
2022-10-04T03:24:31.828Z,3.28
2022-10-04T03:27:00.432Z,3.60
2022-10-04T03:29:28.259Z,3.28
2022-10-04T03:31:58.982Z,3.63
2022-10-04T03:34:28.741Z,3.22
2022-10-04T03:36:58.640Z,3.20
2022-10-04T03:39:32.619Z,2.92
2022-10-04T03:42:04.390Z,2.88
2022-10-04T03:44:31.856Z,3.45
2022-10-04T03:46:59.647Z,3.47
2022-10-04T03:49:32.721Z,2.72
2022-10-04T03:51:59.940Z,2.80
2022-10-04T03:54:27.971Z,3.08
2022-10-04T03:56:55.490Z,2.95
2022-10-04T03:59:24.358Z,3.03
2022-10-04T04:02:18.709Z,2.78
2022-10-04T04:04:52.553Z,2.17
2022-10-04T04:07:28.599Z,2.63
2022-10-04T04:10:16.669Z,2.60
2022-10-04T04:12:47.792Z,2.53
2022-10-04T04:15:14.832Z,2.72
2022-10-04T04:17:46.241Z,13.93
2022-10-04T04:20:21.238Z,3.10
2022-10-04T04:22:59.052Z,3.40
2022-10-04T04:25:26.871Z,3.15
2022-10-04T04:28:26.725Z,2.85
2022-10-04T04:30:57.918Z,3.28
2022-10-04T04:33:30.016Z,3.28
2022-10-04T04:36:03.842Z,3.78
2022-10-04T04:38:30.367Z,3.72
2022-10-04T04:40:57.341Z,3.20
2022-10-04T04:43:27.776Z,3.10
2022-10-04T04:46:14.903Z,3.20
2022-10-04T04:48:44.306Z,2.45
2022-10-04T04:51:21.195Z,3.35
2022-10-04T04:53:48.504Z,3.35
2022-10-04T04:56:21.412Z,3.20
2022-10-04T04:58:49.106Z,3.53
2022-10-04T05:01:24.322Z,2.90
2022-10-04T05:04:12.414Z,3.25
2022-10-04T05:06:43.496Z,3.20
2022-10-04T05:09:23.106Z,3.50
2022-10-04T05:11:51.432Z,3.30
2022-10-04T05:14:18.026Z,3.58
2022-10-04T05:16:53.034Z,3.65
2022-10-04T05:19:35.586Z,4.18
2022-10-04T05:22:07.757Z,4.50
2022-10-04T05:24:37.500Z,4.20
2022-10-04T05:27:06.037Z,4.88
2022-10-04T05:29:36.212Z,4.20
2022-10-04T05:32:44.414Z,3.45
2022-10-04T05:35:16.632Z,4.43
2022-10-04T05:38:03.442Z,4.45
2022-10-04T05:40:36.044Z,4.38
2022-10-04T05:43:03.084Z,4.45
2022-10-04T05:45:31.099Z,4.38
2022-10-04T05:48:01.482Z,4.70
2022-10-04T05:50:35.014Z,4.95
2022-10-04T05:53:22.671Z,4.90
2022-10-04T05:56:01.608Z,4.00
2022-10-04T05:58:44.278Z,3.83
2022-10-04T06:01:24.315Z,4.57
2022-10-04T06:04:28.372Z,4.80
2022-10-04T06:07:34.878Z,4.05
2022-10-04T06:10:41.067Z,5.20
2022-10-04T06:13:21.041Z,4.40
2022-10-04T06:16:11.957Z,4.57
2022-10-04T06:18:58.379Z,3.90
2022-10-04T06:21:49.684Z,4.80
2022-10-04T06:24:26.915Z,5.30
2022-10-04T06:27:17.624Z,5.15
2022-10-04T06:29:49.467Z,4.47
2022-10-04T06:32:35.361Z,4.90
2022-10-04T06:35:23.400Z,4.55
2022-10-04T06:38:20.105Z,5.25
2022-10-04T06:41:07.875Z,4.20
2022-10-04T06:43:41.410Z,4.28
2022-10-04T06:46:44.952Z,4.82
2022-10-04T06:49:15.651Z,3.67
2022-10-04T06:52:01.840Z,4.75
2022-10-04T06:54:47.104Z,4.40
2022-10-04T06:57:33.051Z,4.55
2022-10-04T07:00:21.576Z,4.95
2022-10-04T07:02:50.354Z,4.28
2022-10-04T07:05:30.654Z,4.88
2022-10-04T07:08:36.888Z,4.53
2022-10-04T07:11:13.637Z,5.00
2022-10-04T07:13:45.963Z,4.78
2022-10-04T07:16:43.196Z,5.20
2022-10-04T07:19:36.578Z,5.15
2022-10-04T07:22:12.147Z,3.37
2022-10-04T07:25:09.179Z,4.85
2022-10-04T07:27:47.327Z,4.82
2022-10-04T07:30:16.316Z,4.85
2022-10-04T07:32:47.111Z,5.18
2022-10-04T07:35:35.334Z,5.75
2022-10-04T07:38:13.810Z,5.30
2022-10-04T07:40:59.266Z,6.25
2022-10-04T07:43:30.144Z,5.65
2022-10-04T07:46:37.232Z,5.22
2022-10-04T07:49:03.799Z,5.72
2022-10-04T07:51:40.040Z,5.45
2022-10-04T07:54:35.920Z,5.43
2022-10-04T07:57:12.018Z,5.93
2022-10-04T07:59:56.287Z,5.70
2022-10-04T08:03:08.351Z,5.53
2022-10-04T08:05:41.484Z,6.10
2022-10-04T08:08:14.109Z,6.03
2022-10-04T08:10:55.322Z,6.03
2022-10-04T08:13:42.714Z,4.35
2022-10-04T08:16:21.379Z,6.13
2022-10-04T08:19:06.382Z,6.15
2022-10-04T08:21:44.030Z,6.32
2022-10-04T08:24:24.845Z,5.95
2022-10-04T08:27:04.281Z,5.68
2022-10-04T08:29:44.690Z,6.15
2022-10-04T08:32:23.274Z,5.85
2022-10-04T08:35:17.533Z,6.32
2022-10-04T08:40:47.015Z,5.80
2022-10-04T08:43:43.134Z,6.68
2022-10-04T08:46:24.851Z,6.15
2022-10-04T08:48:51.312Z,5.82
2022-10-04T08:51:55.298Z,5.15
2022-10-04T08:54:50.401Z,5.93
2022-10-04T08:57:50.624Z,5.60
2022-10-04T09:00:35.481Z,5.60
2022-10-04T09:03:26.584Z,5.88
2022-10-04T09:06:06.402Z,5.13
2022-10-04T09:09:25.661Z,5.65
2022-10-04T09:12:20.139Z,5.35
2022-10-04T09:15:17.066Z,5.25
2022-10-04T09:17:53.591Z,5.07
2022-10-04T09:20:38.483Z,4.90
2022-10-04T09:23:37.233Z,4.45
2022-10-04T09:26:33.145Z,5.10
2022-10-04T09:29:24.514Z,5.05
2022-10-04T09:32:19.100Z,4.65
2022-10-04T09:35:07.311Z,4.30
2022-10-04T09:37:58.842Z,4.50
2022-10-04T09:40:28.922Z,4.55
2022-10-04T09:43:12.093Z,5.03
2022-10-04T09:45:59.333Z,4.45
2022-10-04T09:49:10.764Z,4.65
2022-10-04T09:52:15.380Z,4.53
2022-10-04T09:55:06.095Z,4.55
2022-10-04T09:57:58.058Z,4.55
2022-10-04T10:00:28.602Z,4.70
2022-10-04T10:03:20.501Z,5.55
2022-10-04T10:06:29.519Z,4.75
2022-10-04T10:09:07.606Z,4.75
2022-10-04T10:12:10.471Z,4.60
2022-10-04T10:15:01.142Z,4.72
2022-10-04T10:17:40.165Z,4.13
2022-10-04T10:20:48.096Z,5.90
2022-10-04T10:23:35.469Z,4.95
2022-10-04T10:26:29.544Z,4.60
2022-10-04T10:29:37.639Z,5.55
2022-10-04T10:32:15.190Z,5.10
2022-10-04T10:35:24.606Z,5.70
2022-10-04T10:37:54.104Z,5.20
2022-10-04T10:40:45.329Z,5.47
2022-10-04T10:43:52.471Z,5.10
2022-10-04T10:46:58.406Z,4.95
2022-10-04T10:49:40.808Z,4.38
2022-10-04T10:52:13.198Z,4.70
2022-10-04T10:55:01.150Z,4.35
2022-10-04T10:58:09.153Z,4.70
2022-10-04T11:00:44.707Z,3.58
2022-10-04T11:03:40.252Z,3.63
2022-10-04T11:06:22.632Z,3.70
2022-10-04T11:09:40.862Z,3.50
2022-10-04T11:12:18.670Z,3.53
2022-10-04T11:15:15.117Z,2.63
2022-10-04T11:18:08.411Z,1.92
2022-10-04T11:21:03.622Z,2.17
2022-10-04T11:23:58.171Z,2.50
2022-10-04T11:26:58.704Z,2.28
2022-10-04T11:29:41.324Z,2.53
2022-10-04T11:32:19.255Z,2.13
2022-10-04T11:35:07.041Z,2.38
2022-10-04T11:38:07.750Z,2.80
2022-10-04T11:40:40.250Z,3.15
2022-10-04T11:43:32.703Z,3.35
2022-10-04T11:46:20.969Z,3.65
2022-10-04T11:49:10.062Z,3.33
2022-10-04T11:52:08.842Z,3.05
2022-10-04T11:54:47.821Z,3.63
2022-10-04T11:57:31.182Z,3.60
2022-10-04T12:00:18.142Z,3.40
2022-10-04T12:03:19.396Z,3.55
2022-10-04T12:05:55.570Z,3.75
2022-10-04T12:08:43.700Z,3.30
2022-10-04T12:11:16.111Z,3.25
2022-10-04T12:14:01.736Z,3.38
2022-10-04T12:17:08.868Z,4.32
2022-10-04T12:19:54.164Z,3.75
2022-10-04T12:22:48.833Z,3.28
2022-10-04T12:25:42.380Z,3.45
2022-10-04T12:28:30.133Z,3.15
2022-10-04T12:31:00.338Z,3.20
2022-10-04T12:33:52.168Z,2.65
2022-10-04T12:36:33.080Z,3.13
2022-10-04T12:39:44.521Z,3.67
2022-10-04T12:42:32.707Z,3.40
2022-10-04T12:45:25.367Z,3.78
2022-10-04T12:48:14.782Z,3.53
2022-10-04T12:51:15.895Z,3.13
2022-10-04T12:54:12.349Z,2.80
2022-10-04T12:56:46.790Z,2.85
2022-10-04T12:59:45.183Z,3.03
2022-10-04T13:02:47.177Z,3.00
2022-10-04T13:05:25.599Z,2.80
2022-10-04T13:08:04.697Z,2.97
2022-10-04T13:10:49.102Z,3.00
2022-10-04T13:13:45.760Z,3.20
2022-10-04T13:19:37.256Z,2.83
2022-10-04T13:22:37.610Z,2.83
2022-10-04T13:25:26.527Z,2.63
2022-10-04T13:28:23.635Z,3.20
2022-10-04T13:31:09.349Z,2.85
2022-10-04T13:34:00.565Z,2.67
2022-10-04T13:36:59.452Z,2.78
2022-10-04T13:39:30.493Z,2.65
2022-10-04T13:42:23.068Z,2.90
2022-10-04T13:45:18.341Z,2.80
2022-10-04T13:48:22.021Z,2.95
2022-10-04T13:51:30.784Z,2.80
2022-10-04T13:54:40.855Z,2.95
2022-10-04T13:57:18.448Z,3.10
2022-10-04T14:00:06.998Z,2.45
2022-10-04T14:03:04.081Z,3.05
2022-10-04T14:06:06.173Z,3.03
2022-10-04T14:09:09.245Z,2.67
2022-10-04T14:12:04.280Z,3.28
2022-10-04T14:15:12.339Z,3.20
2022-10-04T14:17:56.696Z,2.97
2022-10-04T14:20:47.922Z,3.25
2022-10-04T14:23:35.315Z,3.00
2022-10-04T14:26:10.747Z,3.63
2022-10-04T14:28:45.516Z,3.42
2022-10-04T14:31:36.834Z,3.50
2022-10-04T14:34:34.774Z,3.60
2022-10-04T14:37:20.276Z,3.92
2022-10-04T14:40:13.788Z,3.80
2022-10-04T14:42:46.723Z,3.72
2022-10-04T14:45:35.005Z,3.45
2022-10-04T14:48:24.782Z,3.85
2022-10-04T14:51:22.356Z,3.60
2022-10-04T14:53:56.427Z,3.70
2022-10-04T14:56:43.241Z,3.63
2022-10-04T14:59:20.663Z,3.63
2022-10-04T15:02:24.904Z,4.03
2022-10-04T15:04:54.466Z,3.47
2022-10-04T15:07:24.423Z,4.05
2022-10-04T15:10:04.002Z,4.07
2022-10-04T15:13:16.850Z,4.03
2022-10-04T15:15:58.720Z,4.30
2022-10-04T15:18:47.437Z,3.92
2022-10-04T15:21:33.756Z,3.92
2022-10-04T15:24:15.898Z,4.20
2022-10-04T15:27:33.016Z,4.03
2022-10-04T15:30:22.246Z,4.15
2022-10-04T15:33:11.643Z,4.43
2022-10-04T15:35:47.004Z,4.38
2022-10-04T15:38:25.841Z,4.07
2022-10-04T15:41:13.592Z,4.13
2022-10-04T15:43:44.431Z,4.80
2022-10-04T15:46:45.225Z,4.00
2022-10-04T15:49:28.441Z,4.25
2022-10-04T15:52:32.742Z,3.47
2022-10-04T15:57:56.720Z,4.32
2022-10-04T16:00:32.008Z,4.90
2022-10-04T16:03:41.190Z,5.32
2022-10-04T16:06:27.243Z,4.88
2022-10-04T16:09:14.450Z,4.80
2022-10-04T16:11:55.308Z,4.40
2022-10-04T16:14:41.203Z,5.07
2022-10-04T16:17:31.222Z,4.82
2022-10-04T16:20:02.105Z,5.18
2022-10-04T16:22:33.660Z,4.70
2022-10-04T16:25:26.114Z,5.22
2022-10-04T16:27:58.482Z,5.03
2022-10-04T16:30:30.824Z,5.40
2022-10-04T16:33:18.965Z,5.10
2022-10-04T16:36:05.688Z,4.65
2022-10-04T16:38:35.182Z,5.28
2022-10-04T16:41:10.081Z,5.03
2022-10-04T16:43:48.664Z,5.05
2022-10-04T16:46:15.245Z,5.05
2022-10-04T16:48:57.832Z,5.63
2022-10-04T16:51:47.348Z,4.65
2022-10-04T16:54:32.016Z,4.47
2022-10-04T16:56:59.845Z,4.93
2022-10-04T16:59:38.775Z,5.30
2022-10-04T17:02:37.954Z,5.40
2022-10-04T17:05:41.939Z,4.78
2022-10-04T17:08:17.318Z,5.00
2022-10-04T17:10:49.856Z,5.18
2022-10-04T17:14:01.392Z,5.30
2022-10-04T17:16:41.354Z,5.18
2022-10-04T17:19:34.612Z,5.32
2022-10-04T17:22:22.885Z,5.73
2022-10-04T17:24:59.452Z,5.75
2022-10-04T17:27:47.639Z,5.18
2022-10-04T17:30:48.132Z,4.97
2022-10-04T17:33:24.215Z,4.88
2022-10-04T17:35:57.446Z,5.22
2022-10-04T17:38:48.679Z,5.35
2022-10-04T17:41:27.122Z,5.05
2022-10-04T17:44:34.145Z,5.47
2022-10-04T17:47:14.881Z,5.90
2022-10-04T17:50:21.795Z,5.65
2022-10-04T17:53:12.670Z,5.65
2022-10-04T17:55:50.434Z,6.03
2022-10-04T17:58:25.991Z,6.18
2022-10-04T18:01:07.861Z,5.55
2022-10-04T18:03:41.100Z,5.35
2022-10-04T18:06:32.186Z,5.78
2022-10-04T18:09:03.587Z,6.18
2022-10-04T18:11:42.007Z,5.78
2022-10-04T18:14:58.154Z,5.93
2022-10-04T18:17:44.839Z,5.32
2022-10-04T18:20:37.842Z,4.85
2022-10-04T18:23:28.092Z,5.93
2022-10-04T18:25:58.535Z,5.03
2022-10-04T18:28:26.028Z,5.22
2022-10-04T18:30:59.238Z,5.35
2022-10-04T18:33:35.633Z,4.78
2022-10-04T18:36:24.916Z,5.00
2022-10-04T18:39:14.022Z,5.10
2022-10-04T18:41:51.491Z,4.55
2022-10-04T18:44:23.397Z,4.63
2022-10-04T18:46:56.471Z,5.32
2022-10-04T18:49:33.624Z,5.00
2022-10-04T18:52:13.184Z,4.90
2022-10-04T18:54:48.522Z,4.95
2022-10-04T18:57:34.834Z,4.45
2022-10-04T19:00:29.179Z,4.88
2022-10-04T19:03:22.133Z,4.60
2022-10-04T19:05:59.022Z,4.57
2022-10-04T19:09:02.958Z,4.60
2022-10-04T19:11:41.572Z,5.13
2022-10-04T19:14:32.649Z,4.57
2022-10-04T19:17:03.362Z,4.10
2022-10-04T19:19:46.445Z,5.35
2022-10-04T19:22:18.345Z,4.47
2022-10-04T19:25:06.717Z,4.75
2022-10-04T19:27:40.621Z,4.93
2022-10-04T19:30:22.249Z,5.53
2022-10-04T19:32:58.229Z,4.95
2022-10-04T19:35:24.626Z,4.90
2022-10-04T19:38:15.296Z,4.88
2022-10-04T19:40:54.110Z,5.35
2022-10-04T19:43:42.366Z,4.70
2022-10-04T19:46:35.492Z,5.20
2022-10-04T19:49:02.827Z,5.10
2022-10-04T19:51:44.318Z,5.25
2022-10-04T19:54:15.999Z,5.32
2022-10-04T19:56:49.118Z,5.88
2022-10-04T19:59:31.023Z,3.97
2022-10-04T20:01:57.501Z,5.32
2022-10-04T20:04:36.098Z,5.50
2022-10-04T20:07:05.656Z,5.65
2022-10-04T20:09:41.040Z,5.47
2022-10-04T20:12:30.389Z,5.65
2022-10-04T20:15:12.918Z,5.60
2022-10-04T20:17:41.299Z,5.97
2022-10-04T20:20:08.004Z,6.13
2022-10-04T20:22:49.260Z,5.50
2022-10-04T20:25:49.720Z,5.63
2022-10-04T20:28:28.669Z,6.25
2022-10-04T20:31:00.188Z,5.82
2022-10-04T20:33:32.830Z,5.93
2022-10-04T20:36:09.639Z,5.43
2022-10-04T20:38:44.956Z,6.57
2022-10-04T20:41:52.818Z,5.50
2022-10-04T20:44:45.722Z,5.93
2022-10-04T20:47:28.939Z,5.95
2022-10-04T20:49:57.671Z,6.28
2022-10-04T20:52:34.983Z,5.80
2022-10-04T20:55:01.723Z,5.50
2022-10-04T20:57:30.293Z,6.30
2022-10-04T20:59:57.931Z,5.78
2022-10-04T21:02:27.844Z,6.22
2022-10-04T21:04:57.837Z,6.47
2022-10-04T21:07:25.631Z,5.70
2022-10-04T21:09:56.320Z,6.07
2022-10-04T21:12:32.516Z,6.32
2022-10-04T21:15:17.323Z,5.72
2022-10-04T21:18:06.009Z,6.38
2022-10-04T21:20:48.375Z,6.28
2022-10-04T21:23:18.918Z,6.65
2022-10-04T21:25:45.819Z,6.35
2022-10-04T21:28:32.009Z,6.57
2022-10-04T21:31:00.046Z,6.82
2022-10-04T21:33:26.532Z,6.80
2022-10-04T21:35:53.059Z,6.68
2022-10-04T21:38:19.557Z,6.65
2022-10-04T21:40:46.266Z,6.97
2022-10-04T21:43:12.800Z,6.20
2022-10-04T21:45:39.331Z,6.78
2022-10-04T21:48:05.800Z,6.82
2022-10-04T21:50:32.325Z,6.88
2022-10-04T21:52:59.686Z,6.65
2022-10-04T21:55:26.130Z,6.72
2022-10-04T21:57:52.596Z,6.50
2022-10-04T22:00:19.278Z,6.70
2022-10-04T22:02:45.865Z,7.07
2022-10-04T22:05:12.400Z,6.95
2022-10-04T22:07:38.863Z,7.43
2022-10-04T22:10:05.605Z,7.43
2022-10-04T22:12:32.069Z,7.20
2022-10-04T22:14:59.431Z,7.65
2022-10-04T22:17:26.047Z,7.18
2022-10-04T22:19:53.273Z,7.55
2022-10-04T22:22:20.543Z,7.38
2022-10-04T22:24:47.407Z,6.78
2022-10-04T22:27:16.154Z,7.15
2022-10-04T22:29:42.664Z,7.50
2022-10-04T22:32:24.832Z,7.90
2022-10-04T22:34:52.409Z,8.18
2022-10-04T22:37:23.423Z,7.93
2022-10-04T22:39:53.212Z,8.15
2022-10-04T22:42:20.726Z,7.55
2022-10-04T22:44:47.286Z,7.63
2022-10-04T22:47:15.095Z,8.55
2022-10-04T22:49:44.002Z,7.95
2022-10-04T22:52:17.357Z,7.60
2022-10-04T22:54:45.927Z,7.75
2022-10-04T22:57:14.461Z,7.95
2022-10-04T22:59:49.552Z,8.48
2022-10-04T23:02:18.078Z,7.88
2022-10-04T23:04:51.235Z,8.20
2022-10-04T23:07:18.312Z,8.32
2022-10-04T23:09:45.101Z,8.50
2022-10-04T23:12:11.629Z,8.32
2022-10-04T23:14:39.199Z,9.15
2022-10-04T23:17:25.102Z,7.97
2022-10-04T23:20:01.354Z,8.40
2022-10-04T23:22:29.230Z,8.93
2022-10-04T23:24:56.320Z,9.07
2022-10-04T23:27:23.184Z,8.77
2022-10-04T23:29:57.922Z,9.77
2022-10-04T23:32:25.455Z,9.27
2022-10-04T23:34:56.478Z,8.55
2022-10-04T23:37:27.718Z,8.32
2022-10-04T23:39:54.172Z,8.68
2022-10-04T23:42:28.783Z,9.45
2022-10-04T23:44:57.072Z,8.55
2022-10-04T23:47:27.396Z,9.02
2022-10-04T23:49:53.860Z,8.10
2022-10-04T23:52:25.429Z,8.30
2022-10-04T23:54:53.442Z,8.70
2022-10-04T23:57:27.890Z,9.82
2022-10-04T23:59:54.336Z,9.00
